DA3MD DNMM-DGAA
Flight info
| Callsign | DA3MD |
|---|---|
| Flight time | 0h 36m |
| Altitude | 34000 |
| Route | POLTO1Q POLTO UL433 EREKA EREKA1B |
| Aircraft | CL60/M-SBDE1E2E3FGHIJ1J4J5J7M3RWXYZ/LB1V1D1 |
Departure
| Time | 2026-04-26 08:34 |
|---|---|
| Airport | Murtala Muhammed International Airport (DNMM) |
Arrival
| Time | 2026-04-26 09:11 |
|---|---|
| Airport | Kotoka International Airport (DGAA) |
| Time | Latitude | Longitude | Altitude | Speed | Heading |
|---|---|---|---|---|---|
| 2026-04-26 08:05 | 6.58315 | 3.33122 | 117 ft | 0 kts | 180° |
| 2026-04-26 08:27 | 6.58310 | 3.33127 | 117 ft | 2 kts | 93° |
| 2026-04-26 08:27 | 6.58335 | 3.33129 | 117 ft | 6 kts | 335° |
| 2026-04-26 08:27 | 6.58366 | 3.33086 | 116 ft | 8 kts | 265° |
| 2026-04-26 08:27 | 6.58336 | 3.33045 | 116 ft | 7 kts | 190° |
| 2026-04-26 08:28 | 6.58263 | 3.33044 | 114 ft | 13 kts | 178° |
| 2026-04-26 08:28 | 6.58174 | 3.33046 | 112 ft | 11 kts | 180° |
| 2026-04-26 08:28 | 6.58095 | 3.33047 | 111 ft | 8 kts | 178° |
| 2026-04-26 08:28 | 6.58052 | 3.33004 | 110 ft | 11 kts | 268° |
| 2026-04-26 08:29 | 6.58052 | 3.32931 | 109 ft | 2 kts | 280° |
| 2026-04-26 08:29 | 6.58053 | 3.32894 | 109 ft | 7 kts | 267° |
| 2026-04-26 08:29 | 6.58049 | 3.32823 | 109 ft | 12 kts | 267° |
| 2026-04-26 08:29 | 6.58046 | 3.32747 | 107 ft | 10 kts | 270° |
| 2026-04-26 08:30 | 6.58067 | 3.32658 | 105 ft | 15 kts | 291° |
| 2026-04-26 08:30 | 6.58102 | 3.32567 | 104 ft | 12 kts | 291° |
| 2026-04-26 08:30 | 6.58138 | 3.32471 | 103 ft | 17 kts | 291° |
| 2026-04-26 08:30 | 6.58192 | 3.32339 | 98 ft | 21 kts | 292° |
| 2026-04-26 08:31 | 6.58244 | 3.32209 | 93 ft | 16 kts | 291° |
| 2026-04-26 08:31 | 6.58270 | 3.32089 | 94 ft | 18 kts | 261° |
| 2026-04-26 08:31 | 6.58229 | 3.31990 | 91 ft | 17 kts | 248° |
| 2026-04-26 08:31 | 6.58186 | 3.31882 | 86 ft | 10 kts | 247° |
| 2026-04-26 08:32 | 6.58153 | 3.31800 | 82 ft | 16 kts | 248° |
| 2026-04-26 08:32 | 6.58109 | 3.31694 | 80 ft | 17 kts | 246° |
| 2026-04-26 08:32 | 6.58105 | 3.31685 | 80 ft | 0 kts | 246° |
| 2026-04-26 08:32 | 6.58097 | 3.31666 | 80 ft | 6 kts | 246° |
| 2026-04-26 08:33 | 6.58067 | 3.31598 | 77 ft | 13 kts | 246° |
| 2026-04-26 08:33 | 6.58002 | 3.31517 | 75 ft | 16 kts | 205° |
| 2026-04-26 08:33 | 6.57900 | 3.31465 | 75 ft | 16 kts | 210° |
| 2026-04-26 08:33 | 6.57794 | 3.31404 | 72 ft | 18 kts | 210° |
| 2026-04-26 08:34 | 6.57672 | 3.31337 | 72 ft | 21 kts | 200° |
| 2026-04-26 08:34 | 6.57391 | 3.31332 | 73 ft | 84 kts | 180° |
| 2026-04-26 08:34 | 6.56457 | 3.31332 | 530 ft | 152 kts | 179° |
| 2026-04-26 08:34 | 6.55433 | 3.31321 | 1699 ft | 166 kts | 176° |
| 2026-04-26 08:35 | 6.54204 | 3.31346 | 2830 ft | 185 kts | 177° |
| 2026-04-26 08:35 | 6.52881 | 3.31123 | 3582 ft | 211 kts | 199° |
| 2026-04-26 08:35 | 6.51670 | 3.30145 | 3961 ft | 263 kts | 237° |
| 2026-04-26 08:35 | 6.51201 | 3.28346 | 5129 ft | 281 kts | 268° |
| 2026-04-26 08:36 | 6.51201 | 3.26299 | 6442 ft | 293 kts | 271° |
| 2026-04-26 08:36 | 6.51223 | 3.24245 | 7781 ft | 301 kts | 272° |
| 2026-04-26 08:36 | 6.51232 | 3.22178 | 9097 ft | 306 kts | 271° |
| 2026-04-26 08:36 | 6.51213 | 3.20011 | 10421 ft | 312 kts | 271° |
| 2026-04-26 08:37 | 6.51149 | 3.17806 | 11821 ft | 312 kts | 269° |
| 2026-04-26 08:37 | 6.51040 | 3.15534 | 13232 ft | 312 kts | 269° |
| 2026-04-26 08:37 | 6.50927 | 3.13232 | 14488 ft | 315 kts | 269° |
| 2026-04-26 08:37 | 6.50815 | 3.10960 | 15568 ft | 322 kts | 269° |
| 2026-04-26 08:38 | 6.50704 | 3.08636 | 15852 ft | 353 kts | 269° |
| 2026-04-26 08:38 | 6.50588 | 3.06029 | 16263 ft | 377 kts | 269° |
| 2026-04-26 08:38 | 6.50469 | 3.03362 | 17031 ft | 387 kts | 269° |
| 2026-04-26 08:38 | 6.50346 | 3.00637 | 17920 ft | 391 kts | 269° |
| 2026-04-26 08:39 | 6.50225 | 2.97977 | 18732 ft | 395 kts | 269° |
| 2026-04-26 08:39 | 6.50099 | 2.95219 | 19539 ft | 399 kts | 268° |
| 2026-04-26 08:39 | 6.49967 | 2.92311 | 20295 ft | 404 kts | 268° |
| 2026-04-26 08:39 | 6.49830 | 2.89329 | 21009 ft | 409 kts | 268° |
| 2026-04-26 08:40 | 6.49695 | 2.86380 | 21706 ft | 412 kts | 267° |
| 2026-04-26 08:40 | 6.49558 | 2.83408 | 22334 ft | 417 kts | 267° |
| 2026-04-26 08:40 | 6.49415 | 2.80314 | 22932 ft | 423 kts | 267° |
| 2026-04-26 08:40 | 6.49271 | 2.77205 | 23431 ft | 431 kts | 267° |
| 2026-04-26 08:41 | 6.48828 | 2.74164 | 23934 ft | 436 kts | 254° |
| 2026-04-26 08:41 | 6.47797 | 2.71166 | 24437 ft | 441 kts | 249° |
| 2026-04-26 08:41 | 6.46692 | 2.68137 | 24950 ft | 446 kts | 249° |
| 2026-04-26 08:41 | 6.45591 | 2.65112 | 25437 ft | 451 kts | 249° |
| 2026-04-26 08:42 | 6.44471 | 2.62032 | 25925 ft | 455 kts | 249° |
| 2026-04-26 08:42 | 6.43336 | 2.58912 | 26402 ft | 459 kts | 249° |
| 2026-04-26 08:42 | 6.42230 | 2.55871 | 26819 ft | 463 kts | 249° |
| 2026-04-26 08:42 | 6.41086 | 2.52727 | 27233 ft | 467 kts | 249° |
| 2026-04-26 08:43 | 6.39947 | 2.49595 | 27636 ft | 470 kts | 249° |
| 2026-04-26 08:43 | 6.38779 | 2.46385 | 28064 ft | 473 kts | 248° |
| 2026-04-26 08:43 | 6.37604 | 2.43156 | 28401 ft | 477 kts | 248° |
| 2026-04-26 08:43 | 6.36440 | 2.39880 | 28765 ft | 481 kts | 251° |
| 2026-04-26 08:44 | 6.35715 | 2.36360 | 29161 ft | 485 kts | 259° |
| 2026-04-26 08:44 | 6.35190 | 2.32972 | 29498 ft | 488 kts | 259° |
| 2026-04-26 08:44 | 6.34619 | 2.29327 | 29912 ft | 488 kts | 260° |
| 2026-04-26 08:44 | 6.34051 | 2.25709 | 30231 ft | 490 kts | 259° |
| 2026-04-26 08:45 | 6.33512 | 2.22275 | 30813 ft | 486 kts | 259° |
| 2026-04-26 08:45 | 6.33007 | 2.19050 | 31255 ft | 484 kts | 259° |
| 2026-04-26 08:45 | 6.32446 | 2.15490 | 31627 ft | 485 kts | 259° |
| 2026-04-26 08:45 | 6.31915 | 2.12116 | 31857 ft | 488 kts | 259° |
| 2026-04-26 08:46 | 6.31337 | 2.08455 | 31994 ft | 493 kts | 259° |
| 2026-04-26 08:46 | 6.30747 | 2.04730 | 32110 ft | 496 kts | 259° |
| 2026-04-26 08:46 | 6.30206 | 2.01293 | 32333 ft | 497 kts | 259° |
| 2026-04-26 08:46 | 6.29654 | 1.97784 | 32476 ft | 500 kts | 259° |
| 2026-04-26 08:47 | 6.29087 | 1.94186 | 32698 ft | 501 kts | 259° |
| 2026-04-26 08:47 | 6.28520 | 1.90596 | 33002 ft | 500 kts | 259° |
| 2026-04-26 08:47 | 6.27961 | 1.87061 | 33236 ft | 501 kts | 259° |
| 2026-04-26 08:47 | 6.27399 | 1.83508 | 33476 ft | 501 kts | 259° |
| 2026-04-26 08:48 | 6.26832 | 1.79926 | 33654 ft | 502 kts | 258° |
| 2026-04-26 08:48 | 6.26254 | 1.76275 | 33883 ft | 502 kts | 259° |
| 2026-04-26 08:48 | 6.25125 | 1.69152 | 33945 ft | 503 kts | 259° |
| 2026-04-26 08:49 | 6.23993 | 1.62018 | 33944 ft | 501 kts | 259° |
| 2026-04-26 08:49 | 6.22853 | 1.54848 | 33946 ft | 502 kts | 259° |
| 2026-04-26 08:50 | 6.21713 | 1.47680 | 33889 ft | 503 kts | 259° |
| 2026-04-26 08:50 | 6.21136 | 1.44051 | 33381 ft | 506 kts | 259° |
| 2026-04-26 08:50 | 6.20561 | 1.40437 | 32755 ft | 501 kts | 259° |
| 2026-04-26 08:51 | 6.19430 | 1.33334 | 31422 ft | 486 kts | 259° |
| 2026-04-26 08:51 | 6.18892 | 1.29951 | 30771 ft | 478 kts | 259° |
| 2026-04-26 08:51 | 6.18171 | 1.26498 | 30104 ft | 468 kts | 250° |
| 2026-04-26 08:52 | 6.16907 | 1.23365 | 29453 ft | 460 kts | 245° |
| 2026-04-26 08:52 | 6.15577 | 1.20320 | 28822 ft | 453 kts | 245° |
| 2026-04-26 08:52 | 6.14230 | 1.17215 | 28195 ft | 447 kts | 245° |
| 2026-04-26 08:52 | 6.12946 | 1.14259 | 27566 ft | 441 kts | 245° |
| 2026-04-26 08:53 | 6.11647 | 1.11271 | 26942 ft | 436 kts | 245° |
| 2026-04-26 08:53 | 6.10322 | 1.08224 | 26310 ft | 430 kts | 245° |
| 2026-04-26 08:53 | 6.09104 | 1.05422 | 25726 ft | 425 kts | 245° |
| 2026-04-26 08:53 | 6.07836 | 1.02506 | 25128 ft | 420 kts | 245° |
| 2026-04-26 08:54 | 6.06627 | 0.99638 | 24528 ft | 415 kts | 248° |
| 2026-04-26 08:54 | 6.05588 | 0.96887 | 23969 ft | 410 kts | 248° |
| 2026-04-26 08:54 | 6.04521 | 0.94039 | 23390 ft | 405 kts | 248° |
| 2026-04-26 08:54 | 6.03457 | 0.91198 | 22815 ft | 400 kts | 248° |
| 2026-04-26 08:55 | 6.02476 | 0.88579 | 22297 ft | 393 kts | 248° |
| 2026-04-26 08:55 | 6.01480 | 0.85922 | 21766 ft | 388 kts | 249° |
| 2026-04-26 08:55 | 6.00500 | 0.83306 | 21232 ft | 383 kts | 249° |
| 2026-04-26 08:55 | 5.99557 | 0.80788 | 20719 ft | 378 kts | 249° |
| 2026-04-26 08:56 | 5.98681 | 0.78289 | 20215 ft | 372 kts | 256° |
| 2026-04-26 08:56 | 5.98209 | 0.75789 | 19721 ft | 368 kts | 262° |
| 2026-04-26 08:56 | 5.97794 | 0.73223 | 19231 ft | 363 kts | 262° |
| 2026-04-26 08:56 | 5.97394 | 0.70737 | 18748 ft | 359 kts | 262° |
| 2026-04-26 08:57 | 5.96990 | 0.68235 | 18268 ft | 354 kts | 263° |
| 2026-04-26 08:57 | 5.96594 | 0.65784 | 17799 ft | 350 kts | 263° |
| 2026-04-26 08:57 | 5.96199 | 0.63338 | 17325 ft | 346 kts | 263° |
| 2026-04-26 08:57 | 5.95809 | 0.60931 | 16867 ft | 343 kts | 263° |
| 2026-04-26 08:58 | 5.95423 | 0.58551 | 16402 ft | 339 kts | 263° |
| 2026-04-26 08:58 | 5.95039 | 0.56176 | 15955 ft | 336 kts | 262° |
| 2026-04-26 08:58 | 5.94665 | 0.53874 | 15505 ft | 334 kts | 262° |
| 2026-04-26 08:58 | 5.94284 | 0.51525 | 15048 ft | 331 kts | 262° |
| 2026-04-26 08:59 | 5.93912 | 0.49235 | 14605 ft | 329 kts | 262° |
| 2026-04-26 08:59 | 5.93536 | 0.46918 | 14158 ft | 326 kts | 261° |
| 2026-04-26 08:59 | 5.93167 | 0.44643 | 13711 ft | 324 kts | 261° |
| 2026-04-26 08:59 | 5.92790 | 0.42328 | 13271 ft | 322 kts | 261° |
| 2026-04-26 09:00 | 5.92430 | 0.40114 | 12836 ft | 320 kts | 261° |
| 2026-04-26 09:00 | 5.92069 | 0.37892 | 12419 ft | 318 kts | 261° |
| 2026-04-26 09:00 | 5.91733 | 0.35827 | 12012 ft | 317 kts | 261° |
| 2026-04-26 09:00 | 5.91377 | 0.33640 | 11592 ft | 315 kts | 261° |
| 2026-04-26 09:01 | 5.91007 | 0.31367 | 11162 ft | 313 kts | 261° |
| 2026-04-26 09:01 | 5.90653 | 0.29200 | 10732 ft | 311 kts | 261° |
| 2026-04-26 09:01 | 5.90300 | 0.27031 | 10331 ft | 309 kts | 261° |
| 2026-04-26 09:01 | 5.89937 | 0.24805 | 9894 ft | 308 kts | 261° |
| 2026-04-26 09:02 | 5.89581 | 0.22626 | 9477 ft | 306 kts | 261° |
| 2026-04-26 09:02 | 5.89230 | 0.20477 | 9062 ft | 304 kts | 261° |
| 2026-04-26 09:02 | 5.88881 | 0.18338 | 8651 ft | 302 kts | 261° |
| 2026-04-26 09:02 | 5.88544 | 0.16273 | 8262 ft | 299 kts | 261° |
| 2026-04-26 09:03 | 5.88206 | 0.14200 | 7867 ft | 297 kts | 261° |
| 2026-04-26 09:03 | 5.87865 | 0.12115 | 7469 ft | 293 kts | 261° |
| 2026-04-26 09:03 | 5.87528 | 0.10053 | 7080 ft | 290 kts | 261° |
| 2026-04-26 09:03 | 5.87198 | 0.08032 | 6685 ft | 287 kts | 261° |
| 2026-04-26 09:04 | 5.86871 | 0.06032 | 6306 ft | 284 kts | 260° |
| 2026-04-26 09:04 | 5.86545 | 0.04036 | 5925 ft | 281 kts | 260° |
| 2026-04-26 09:04 | 5.86225 | 0.02079 | 5542 ft | 278 kts | 260° |
| 2026-04-26 09:04 | 5.85904 | 0.00116 | 5165 ft | 274 kts | 259° |
| 2026-04-26 09:05 | 5.85588 | -0.01814 | 4796 ft | 270 kts | 259° |
| 2026-04-26 09:05 | 5.85275 | -0.03727 | 4425 ft | 266 kts | 259° |
| 2026-04-26 09:05 | 5.84788 | -0.05471 | 4073 ft | 260 kts | 242° |
| 2026-04-26 09:05 | 5.83727 | -0.06885 | 3693 ft | 255 kts | 220° |
| 2026-04-26 09:06 | 5.82161 | -0.07828 | 3196 ft | 246 kts | 202° |
| 2026-04-26 09:06 | 5.80588 | -0.08475 | 2815 ft | 237 kts | 201° |
| 2026-04-26 09:06 | 5.79113 | -0.09080 | 2470 ft | 229 kts | 201° |
| 2026-04-26 09:06 | 5.77633 | -0.09688 | 2160 ft | 225 kts | 201° |
| 2026-04-26 09:07 | 5.76181 | -0.10282 | 2051 ft | 202 kts | 201° |
| 2026-04-26 09:07 | 5.74945 | -0.10785 | 2069 ft | 176 kts | 201° |
| 2026-04-26 09:07 | 5.73898 | -0.11214 | 2034 ft | 145 kts | 201° |
| 2026-04-26 09:07 | 5.73030 | -0.11571 | 2070 ft | 133 kts | 201° |
| 2026-04-26 09:08 | 5.72128 | -0.11940 | 2052 ft | 130 kts | 202° |
| 2026-04-26 09:08 | 5.71239 | -0.12306 | 2040 ft | 128 kts | 202° |
| 2026-04-26 09:08 | 5.70388 | -0.12657 | 1992 ft | 130 kts | 202° |
| 2026-04-26 09:08 | 5.69506 | -0.13021 | 1809 ft | 128 kts | 202° |
| 2026-04-26 09:09 | 5.68636 | -0.13380 | 1649 ft | 128 kts | 201° |
| 2026-04-26 09:09 | 5.67796 | -0.13725 | 1484 ft | 127 kts | 203° |
| 2026-04-26 09:09 | 5.66932 | -0.14081 | 1314 ft | 127 kts | 202° |
| 2026-04-26 09:09 | 5.66061 | -0.14440 | 1138 ft | 127 kts | 201° |
| 2026-04-26 09:10 | 5.65229 | -0.14786 | 984 ft | 127 kts | 202° |
| 2026-04-26 09:10 | 5.64336 | -0.15164 | 840 ft | 128 kts | 201° |
| 2026-04-26 09:10 | 5.63460 | -0.15519 | 649 ft | 130 kts | 202° |
| 2026-04-26 09:10 | 5.62603 | -0.15856 | 414 ft | 128 kts | 202° |
| 2026-04-26 09:11 | 5.61705 | -0.16237 | 259 ft | 129 kts | 202° |
| 2026-04-26 09:11 | 5.60886 | -0.16566 | 220 ft | 107 kts | 202° |
| 2026-04-26 09:11 | 5.60425 | -0.16756 | 213 ft | 24 kts | 202° |
| 2026-04-26 09:11 | 5.60214 | -0.16845 | 207 ft | 34 kts | 203° |
| 2026-04-26 09:12 | 5.60033 | -0.16919 | 204 ft | 23 kts | 201° |
| 2026-04-26 09:12 | 5.59949 | -0.16900 | 202 ft | 17 kts | 81° |
| 2026-04-26 09:12 | 5.60025 | -0.16753 | 201 ft | 26 kts | 64° |
| 2026-04-26 09:12 | 5.60102 | -0.16595 | 206 ft | 23 kts | 64° |
| 2026-04-26 09:13 | 5.60156 | -0.16488 | 209 ft | 10 kts | 62° |
| 2026-04-26 09:13 | 5.60173 | -0.16414 | 209 ft | 9 kts | 126° |
| 2026-04-26 09:13 | 5.60116 | -0.16418 | 208 ft | 11 kts | 188° |
| 2026-04-26 09:13 | 5.60098 | -0.16405 | 208 ft | 0 kts | 69° |
| 2026-04-26 09:19 | 5.59983 | -0.17279 | 215 ft | 0 kts | 0° |
| 2026-04-26 09:19 | 5.60098 | -0.16405 | 208 ft | 0 kts | 68° |
| 2026-04-26 09:42 | 5.60109 | -0.16393 | 208 ft | 6 kts | 28° |
| 2026-04-26 09:42 | 5.60163 | -0.16405 | 209 ft | 8 kts | 343° |
| 2026-04-26 09:43 | 5.60217 | -0.16361 | 208 ft | 11 kts | 64° |
| 2026-04-26 09:43 | 5.60280 | -0.16309 | 207 ft | 14 kts | 341° |
| 2026-04-26 09:43 | 5.60365 | -0.16365 | 207 ft | 12 kts | 296° |
| 2026-04-26 09:43 | 5.60406 | -0.16460 | 208 ft | 13 kts | 292° |
| 2026-04-26 09:44 | 5.60446 | -0.16560 | 209 ft | 16 kts | 292° |
| 2026-04-26 09:44 | 5.60482 | -0.16645 | 211 ft | 10 kts | 293° |
| 2026-04-26 09:44 | 5.60501 | -0.16689 | 213 ft | 6 kts | 296° |
| 2026-04-26 09:44 | 5.60570 | -0.16697 | 214 ft | 16 kts | 19° |
| 2026-04-26 09:45 | 5.60705 | -0.16642 | 216 ft | 24 kts | 22° |
| 2026-04-26 09:45 | 5.60887 | -0.16558 | 220 ft | 29 kts | 31° |
| 2026-04-26 09:45 | 5.60955 | -0.16540 | 221 ft | 8 kts | 216° |
| 2026-04-26 09:45 | 5.60616 | -0.16681 | 214 ft | 113 kts | 202° |
| 2026-04-26 09:46 | 5.59633 | -0.17083 | 816 ft | 167 kts | 201° |
| 2026-04-26 09:46 | 5.58446 | -0.17576 | 2183 ft | 188 kts | 195° |
| 2026-04-26 09:46 | 5.57044 | -0.18011 | 3230 ft | 230 kts | 204° |
| 2026-04-26 09:46 | 5.55391 | -0.18726 | 4505 ft | 260 kts | 196° |
| 2026-04-26 09:47 | 5.53591 | -0.19482 | 5983 ft | 279 kts | 201° |
| 2026-04-26 09:47 | 5.51749 | -0.20256 | 7463 ft | 292 kts | 200° |
| 2026-04-26 09:47 | 5.49775 | -0.20678 | 8936 ft | 294 kts | 174° |
| 2026-04-26 09:47 | 5.47882 | -0.20164 | 10347 ft | 292 kts | 147° |
| 2026-04-26 09:48 | 5.46472 | -0.18836 | 11728 ft | 290 kts | 120° |
| 2026-04-26 09:48 | 5.45817 | -0.16916 | 13026 ft | 294 kts | 96° |
| 2026-04-26 09:48 | 5.45637 | -0.14882 | 13765 ft | 318 kts | 93° |
| 2026-04-26 09:48 | 5.45499 | -0.12769 | 14448 ft | 337 kts | 92° |
| 2026-04-26 09:49 | 5.45444 | -0.10560 | 15264 ft | 349 kts | 83° |
| 2026-04-26 09:49 | 5.46097 | -0.08127 | 16259 ft | 356 kts | 68° |
| 2026-04-26 09:49 | 5.47200 | -0.06041 | 17189 ft | 360 kts | 57° |
| 2026-04-26 09:49 | 5.48421 | -0.04078 | 18080 ft | 365 kts | 57° |
| 2026-04-26 09:50 | 5.49685 | -0.02051 | 18934 ft | 370 kts | 57° |
| 2026-04-26 09:50 | 5.51062 | 0.00165 | 19759 ft | 378 kts | 58° |
| 2026-04-26 09:50 | 5.52445 | 0.02400 | 20573 ft | 384 kts | 58° |
| 2026-04-26 09:50 | 5.53770 | 0.04547 | 21307 ft | 389 kts | 58° |
| 2026-04-26 09:51 | 5.55115 | 0.06732 | 21981 ft | 395 kts | 58° |
| 2026-04-26 09:51 | 5.56526 | 0.09029 | 22656 ft | 401 kts | 59° |
| 2026-04-26 09:51 | 5.58004 | 0.11439 | 23430 ft | 404 kts | 59° |
| 2026-04-26 09:51 | 5.59371 | 0.13673 | 24158 ft | 406 kts | 59° |
| 2026-04-26 09:52 | 5.60753 | 0.15934 | 24843 ft | 408 kts | 59° |
| 2026-04-26 09:52 | 5.63768 | 0.20874 | 26147 ft | 415 kts | 60° |
| 2026-04-26 09:52 | 5.65215 | 0.23248 | 26717 ft | 418 kts | 60° |
| 2026-04-26 09:53 | 5.66673 | 0.25643 | 27277 ft | 421 kts | 60° |
| 2026-04-26 09:53 | 5.68234 | 0.28209 | 27857 ft | 423 kts | 60° |
| 2026-04-26 09:53 | 5.69806 | 0.30795 | 28373 ft | 427 kts | 61° |
| 2026-04-26 09:53 | 5.71344 | 0.33324 | 28872 ft | 430 kts | 60° |
| 2026-04-26 09:54 | 5.72898 | 0.35883 | 29329 ft | 434 kts | 60° |
| 2026-04-26 09:54 | 5.74503 | 0.38525 | 29809 ft | 437 kts | 60° |
| 2026-04-26 09:54 | 5.76173 | 0.41275 | 30277 ft | 440 kts | 61° |
| 2026-04-26 09:54 | 5.77877 | 0.44082 | 30832 ft | 441 kts | 61° |
| 2026-04-26 09:55 | 5.79505 | 0.46764 | 31267 ft | 443 kts | 60° |
| 2026-04-26 09:55 | 5.81215 | 0.49584 | 31647 ft | 447 kts | 61° |
| 2026-04-26 09:55 | 5.82919 | 0.52393 | 32101 ft | 448 kts | 61° |
| 2026-04-26 09:55 | 5.84590 | 0.55150 | 32529 ft | 449 kts | 61° |
| 2026-04-26 09:56 | 5.86302 | 0.57976 | 32825 ft | 453 kts | 61° |
| 2026-04-26 09:56 | 5.88037 | 0.60843 | 32985 ft | 459 kts | 61° |
| 2026-04-26 09:56 | 5.91402 | 0.66403 | 32980 ft | 473 kts | 61° |
| 2026-04-26 09:57 | 5.94889 | 0.72164 | 32980 ft | 483 kts | 61° |
| 2026-04-26 09:57 | 5.98159 | 0.78089 | 32982 ft | 488 kts | 69° |
| 2026-04-26 09:58 | 6.00110 | 0.84446 | 32980 ft | 490 kts | 78° |
| 2026-04-26 09:58 | 6.01619 | 0.90890 | 32982 ft | 492 kts | 78° |
| 2026-04-26 09:59 | 6.03155 | 0.97449 | 32988 ft | 492 kts | 78° |
| 2026-04-26 09:59 | 6.04698 | 1.04036 | 32996 ft | 489 kts | 78° |
| 2026-04-26 10:00 | 6.06234 | 1.10587 | 32999 ft | 465 kts | 79° |
| 2026-04-26 10:00 | 6.07722 | 1.16937 | 33006 ft | 452 kts | 79° |
| 2026-04-26 10:01 | 6.09177 | 1.23160 | 33001 ft | 452 kts | 79° |
| 2026-04-26 10:01 | 6.10640 | 1.29418 | 33000 ft | 452 kts | 79° |
| 2026-04-26 10:02 | 6.12140 | 1.35838 | 33003 ft | 451 kts | 79° |
| 2026-04-26 10:02 | 6.13623 | 1.42189 | 32999 ft | 451 kts | 79° |
| 2026-04-26 10:03 | 6.15048 | 1.48293 | 32994 ft | 451 kts | 79° |
| 2026-04-26 10:03 | 6.16518 | 1.54589 | 32984 ft | 452 kts | 79° |
| 2026-04-26 10:04 | 6.17971 | 1.60815 | 32981 ft | 452 kts | 79° |
| 2026-04-26 10:04 | 6.19438 | 1.67107 | 32974 ft | 452 kts | 79° |
| 2026-04-26 10:05 | 6.20929 | 1.73502 | 32975 ft | 451 kts | 79° |
| 2026-04-26 10:05 | 6.22404 | 1.79836 | 32982 ft | 451 kts | 79° |
| 2026-04-26 10:06 | 6.23912 | 1.86317 | 32970 ft | 450 kts | 79° |
| 2026-04-26 10:06 | 6.25420 | 1.92777 | 32496 ft | 456 kts | 79° |
| 2026-04-26 10:07 | 6.26193 | 1.96094 | 31930 ft | 447 kts | 78° |
| 2026-04-26 10:07 | 6.26933 | 1.99228 | 31327 ft | 438 kts | 79° |
| 2026-04-26 10:07 | 6.27654 | 2.02297 | 30734 ft | 431 kts | 80° |
| 2026-04-26 10:07 | 6.28391 | 2.05454 | 30068 ft | 425 kts | 79° |
| 2026-04-26 10:08 | 6.29089 | 2.08439 | 29550 ft | 417 kts | 79° |
| 2026-04-26 10:08 | 6.29773 | 2.11386 | 28932 ft | 412 kts | 79° |
| 2026-04-26 10:08 | 6.30476 | 2.14413 | 28411 ft | 405 kts | 78° |
| 2026-04-26 10:08 | 6.31123 | 2.17199 | 27837 ft | 401 kts | 78° |
| 2026-04-26 10:09 | 6.31766 | 2.19983 | 27311 ft | 397 kts | 78° |
| 2026-04-26 10:09 | 6.32411 | 2.22777 | 26787 ft | 393 kts | 78° |
| 2026-04-26 10:09 | 6.33051 | 2.25558 | 26248 ft | 389 kts | 78° |
| 2026-04-26 10:09 | 6.33664 | 2.28211 | 25737 ft | 386 kts | 78° |
| 2026-04-26 10:10 | 6.34274 | 2.30850 | 25222 ft | 382 kts | 78° |
| 2026-04-26 10:10 | 6.34906 | 2.33579 | 24684 ft | 379 kts | 77° |
| 2026-04-26 10:10 | 6.35513 | 2.36203 | 24173 ft | 376 kts | 77° |
| 2026-04-26 10:10 | 6.36215 | 2.38658 | 23705 ft | 373 kts | 68° |
| 2026-04-26 10:11 | 6.37488 | 2.40850 | 23225 ft | 371 kts | 53° |
| 2026-04-26 10:11 | 6.39139 | 2.42876 | 22713 ft | 369 kts | 50° |
| 2026-04-26 10:11 | 6.40798 | 2.44864 | 22223 ft | 366 kts | 49° |
| 2026-04-26 10:11 | 6.42492 | 2.46897 | 21720 ft | 363 kts | 49° |
| 2026-04-26 10:12 | 6.43990 | 2.48695 | 21270 ft | 360 kts | 49° |
| 2026-04-26 10:12 | 6.45654 | 2.50693 | 20771 ft | 357 kts | 49° |
| 2026-04-26 10:12 | 6.47268 | 2.52633 | 20294 ft | 352 kts | 49° |
| 2026-04-26 10:12 | 6.48837 | 2.54518 | 19822 ft | 349 kts | 49° |
| 2026-04-26 10:13 | 6.50377 | 2.56370 | 19363 ft | 345 kts | 48° |
| 2026-04-26 10:13 | 6.51952 | 2.58264 | 18892 ft | 340 kts | 49° |
| 2026-04-26 10:13 | 6.53552 | 2.60188 | 18420 ft | 336 kts | 48° |
| 2026-04-26 10:13 | 6.55116 | 2.62070 | 17956 ft | 332 kts | 48° |
| 2026-04-26 10:14 | 6.56601 | 2.63858 | 17478 ft | 322 kts | 48° |
| 2026-04-26 10:14 | 6.58059 | 2.65615 | 17071 ft | 309 kts | 48° |
| 2026-04-26 10:14 | 6.59473 | 2.67318 | 16651 ft | 299 kts | 48° |
| 2026-04-26 10:14 | 6.60825 | 2.68946 | 16173 ft | 292 kts | 48° |
| 2026-04-26 10:15 | 6.62136 | 2.70525 | 15811 ft | 283 kts | 49° |
| 2026-04-26 10:15 | 6.63404 | 2.72051 | 15427 ft | 276 kts | 49° |
| 2026-04-26 10:15 | 6.64621 | 2.73516 | 15070 ft | 269 kts | 49° |
| 2026-04-26 10:15 | 6.65845 | 2.74990 | 14707 ft | 263 kts | 49° |
| 2026-04-26 10:16 | 6.67018 | 2.76403 | 14361 ft | 258 kts | 49° |
| 2026-04-26 10:16 | 6.68180 | 2.77802 | 14011 ft | 253 kts | 49° |
| 2026-04-26 10:16 | 6.69323 | 2.79179 | 13667 ft | 248 kts | 49° |
| 2026-04-26 10:16 | 6.70399 | 2.80558 | 13336 ft | 245 kts | 59° |
| 2026-04-26 10:17 | 6.71038 | 2.82219 | 12994 ft | 246 kts | 72° |
| 2026-04-26 10:17 | 6.71551 | 2.83922 | 12654 ft | 246 kts | 71° |
| 2026-04-26 10:17 | 6.72054 | 2.85581 | 12329 ft | 243 kts | 71° |
| 2026-04-26 10:17 | 6.72556 | 2.87238 | 12006 ft | 241 kts | 71° |
| 2026-04-26 10:18 | 6.73059 | 2.88897 | 11680 ft | 240 kts | 71° |
| 2026-04-26 10:18 | 6.73546 | 2.90504 | 11355 ft | 238 kts | 71° |
| 2026-04-26 10:18 | 6.74040 | 2.92130 | 11040 ft | 235 kts | 71° |
| 2026-04-26 10:18 | 6.74522 | 2.93717 | 10721 ft | 232 kts | 71° |
| 2026-04-26 10:19 | 6.75021 | 2.95359 | 10398 ft | 229 kts | 71° |
| 2026-04-26 10:19 | 6.75491 | 2.96908 | 10090 ft | 227 kts | 71° |
| 2026-04-26 10:19 | 6.75931 | 2.98356 | 9798 ft | 225 kts | 71° |
| 2026-04-26 10:19 | 6.76392 | 2.99874 | 9493 ft | 222 kts | 71° |
| 2026-04-26 10:20 | 6.76845 | 3.01365 | 9209 ft | 221 kts | 71° |
| 2026-04-26 10:20 | 6.77317 | 3.02918 | 8902 ft | 220 kts | 72° |
| 2026-04-26 10:20 | 6.77764 | 3.04387 | 8611 ft | 221 kts | 72° |
| 2026-04-26 10:20 | 6.78211 | 3.05861 | 8325 ft | 220 kts | 72° |
| 2026-04-26 10:21 | 6.78661 | 3.07339 | 8030 ft | 220 kts | 73° |
| 2026-04-26 10:21 | 6.79133 | 3.08891 | 7718 ft | 220 kts | 73° |
| 2026-04-26 10:21 | 6.79569 | 3.10326 | 7440 ft | 219 kts | 73° |
| 2026-04-26 10:21 | 6.80008 | 3.11769 | 7148 ft | 219 kts | 73° |
| 2026-04-26 10:22 | 6.80462 | 3.13267 | 6849 ft | 219 kts | 73° |
| 2026-04-26 10:22 | 6.80916 | 3.14759 | 6550 ft | 218 kts | 73° |
| 2026-04-26 10:22 | 6.81366 | 3.16242 | 6266 ft | 216 kts | 73° |
| 2026-04-26 10:22 | 6.81822 | 3.17741 | 5955 ft | 216 kts | 74° |
| 2026-04-26 10:23 | 6.82223 | 3.19107 | 5707 ft | 214 kts | 78° |
| 2026-04-26 10:23 | 6.82343 | 3.20629 | 5366 ft | 214 kts | 89° |
| 2026-04-26 10:23 | 6.82358 | 3.22143 | 5100 ft | 213 kts | 89° |
| 2026-04-26 10:23 | 6.82376 | 3.23633 | 4813 ft | 213 kts | 90° |
| 2026-04-26 10:24 | 6.82394 | 3.25169 | 4520 ft | 213 kts | 90° |
| 2026-04-26 10:24 | 6.82413 | 3.26667 | 4236 ft | 212 kts | 90° |
| 2026-04-26 10:24 | 6.82419 | 3.28140 | 3955 ft | 211 kts | 95° |
| 2026-04-26 10:24 | 6.81990 | 3.29552 | 3594 ft | 211 kts | 122° |
| 2026-04-26 10:25 | 6.80962 | 3.30569 | 3313 ft | 208 kts | 149° |
| 2026-04-26 10:25 | 6.79641 | 3.30948 | 3079 ft | 212 kts | 172° |
| 2026-04-26 10:25 | 6.78223 | 3.31031 | 2856 ft | 214 kts | 175° |
| 2026-04-26 10:25 | 6.76748 | 3.31077 | 2628 ft | 214 kts | 176° |
| 2026-04-26 10:26 | 6.75228 | 3.31105 | 2386 ft | 206 kts | 176° |
| 2026-04-26 10:26 | 6.73916 | 3.31122 | 2364 ft | 183 kts | 176° |
| 2026-04-26 10:26 | 6.72627 | 3.31141 | 2396 ft | 184 kts | 176° |
| 2026-04-26 10:26 | 6.71301 | 3.31159 | 2410 ft | 184 kts | 176° |
| 2026-04-26 10:27 | 6.69989 | 3.31176 | 2156 ft | 180 kts | 176° |
| 2026-04-26 10:27 | 6.68816 | 3.31187 | 1959 ft | 162 kts | 176° |
| 2026-04-26 10:27 | 6.67663 | 3.31202 | 1740 ft | 158 kts | 176° |
| 2026-04-26 10:27 | 6.66633 | 3.31211 | 1596 ft | 134 kts | 176° |
| 2026-04-26 10:28 | 6.65741 | 3.31221 | 1456 ft | 128 kts | 175° |
| 2026-04-26 10:28 | 6.64840 | 3.31235 | 1247 ft | 124 kts | 176° |
| 2026-04-26 10:28 | 6.63970 | 3.31247 | 1078 ft | 123 kts | 176° |
| 2026-04-26 10:28 | 6.63105 | 3.31259 | 924 ft | 123 kts | 177° |
| 2026-04-26 10:29 | 6.62220 | 3.31271 | 760 ft | 122 kts | 175° |
| 2026-04-26 10:29 | 6.61345 | 3.31282 | 610 ft | 122 kts | 178° |
| 2026-04-26 10:29 | 6.60510 | 3.31294 | 429 ft | 122 kts | 178° |
| 2026-04-26 10:29 | 6.59669 | 3.31302 | 265 ft | 121 kts | 178° |
| 2026-04-26 10:30 | 6.58792 | 3.31317 | 128 ft | 121 kts | 179° |
| 2026-04-26 10:30 | 6.57989 | 3.31323 | 68 ft | 100 kts | 177° |
| 2026-04-26 10:30 | 6.57380 | 3.31332 | 74 ft | 82 kts | 179° |
| 2026-04-26 10:30 | 6.56818 | 3.31335 | 74 ft | 55 kts | 178° |
| 2026-04-26 10:31 | 6.56578 | 3.31363 | 74 ft | 26 kts | 161° |
| 2026-04-26 10:31 | 6.56464 | 3.31415 | 76 ft | 9 kts | 148° |
| 2026-04-26 10:31 | 6.56411 | 3.31459 | 79 ft | 10 kts | 116° |
| 2026-04-26 10:31 | 6.56425 | 3.31533 | 82 ft | 11 kts | 38° |
| 2026-04-26 10:32 | 6.56515 | 3.31544 | 83 ft | 15 kts | 1° |
| 2026-04-26 10:32 | 6.56646 | 3.31543 | 80 ft | 22 kts | 0° |
| 2026-04-26 10:32 | 6.56828 | 3.31540 | 78 ft | 27 kts | 359° |
| 2026-04-26 10:32 | 6.57020 | 3.31538 | 78 ft | 28 kts | 359° |
| 2026-04-26 10:33 | 6.57232 | 3.31535 | 79 ft | 31 kts | 358° |
| 2026-04-26 10:33 | 6.57430 | 3.31533 | 79 ft | 26 kts | 0° |
| 2026-04-26 10:33 | 6.57618 | 3.31530 | 79 ft | 18 kts | 359° |
| 2026-04-26 10:33 | 6.57756 | 3.31529 | 78 ft | 22 kts | 359° |
| 2026-04-26 10:34 | 6.57868 | 3.31527 | 78 ft | 13 kts | 359° |
| 2026-04-26 10:34 | 6.57979 | 3.31525 | 76 ft | 12 kts | 0° |
| 2026-04-26 10:34 | 6.58061 | 3.31575 | 76 ft | 16 kts | 66° |
| 2026-04-26 10:34 | 6.58105 | 3.31687 | 81 ft | 17 kts | 68° |
| 2026-04-26 10:35 | 6.58158 | 3.31815 | 83 ft | 20 kts | 66° |
| 2026-04-26 10:35 | 6.58209 | 3.31938 | 90 ft | 13 kts | 65° |
| 2026-04-26 10:35 | 6.58252 | 3.32036 | 93 ft | 15 kts | 67° |
| 2026-04-26 10:35 | 6.58266 | 3.32153 | 94 ft | 18 kts | 107° |
| 2026-04-26 10:36 | 6.58213 | 3.32290 | 95 ft | 21 kts | 112° |
| 2026-04-26 10:36 | 6.58159 | 3.32426 | 102 ft | 20 kts | 112° |
| 2026-04-26 10:36 | 6.58105 | 3.32566 | 104 ft | 19 kts | 112° |
| 2026-04-26 10:36 | 6.58058 | 3.32674 | 106 ft | 10 kts | 135° |
| 2026-04-26 10:37 | 6.57971 | 3.32700 | 106 ft | 14 kts | 173° |
| 2026-04-26 10:37 | 6.57857 | 3.32707 | 106 ft | 18 kts | 178° |
| 2026-04-26 10:37 | 6.57716 | 3.32709 | 104 ft | 22 kts | 178° |
| 2026-04-26 10:37 | 6.57537 | 3.32712 | 103 ft | 26 kts | 180° |
| 2026-04-26 10:38 | 6.57420 | 3.32713 | 101 ft | 10 kts | 188° |
| 2026-04-26 10:38 | 6.57382 | 3.32651 | 101 ft | 10 kts | 267° |
| 2026-04-26 10:38 | 6.57336 | 3.32610 | 99 ft | 13 kts | 216° |
| 2026-04-26 10:38 | 6.57324 | 3.32535 | 97 ft | 10 kts | 273° |
| 2026-04-26 10:39 | 6.57309 | 3.32522 | 96 ft | 7 kts | 88° |
| 2026-04-26 10:39 | 6.57309 | 3.32526 | 96 ft | 0 kts | 87° |